createdAt,value
2018-02-08T00:02:01.111Z,13.77
2018-02-08T00:04:28.704Z,14.43
2018-02-08T00:06:56.471Z,13.60
2018-02-08T00:09:23.322Z,13.20
2018-02-08T00:11:50.171Z,13.20
2018-02-08T00:14:17.324Z,14.20
2018-02-08T00:16:44.089Z,18.27
2018-02-08T00:19:11.741Z,17.83
2018-02-08T00:21:38.477Z,22.57
2018-02-08T00:24:05.127Z,21.83
2018-02-08T00:26:32.181Z,14.53
2018-02-08T00:28:59.442Z,11.07
2018-02-08T00:31:26.290Z,12.80
2018-02-08T00:33:53.215Z,13.47
2018-02-08T00:36:20.600Z,11.77
2018-02-08T00:38:47.455Z,10.63
2018-02-08T00:41:14.157Z,11.70
2018-02-08T00:43:41.532Z,10.80
2018-02-08T00:46:09.018Z,18.53
2018-02-08T00:48:36.686Z,12.80
2018-02-08T00:51:03.361Z,13.60
2018-02-08T00:53:30.063Z,17.73
2018-02-08T00:55:56.821Z,13.83
2018-02-08T00:58:23.672Z,16.50
2018-02-08T01:00:50.413Z,14.20
2018-02-08T01:03:17.573Z,9.93
2018-02-08T01:05:44.627Z,9.47
2018-02-08T01:08:11.270Z,11.53
2018-02-08T01:10:38.004Z,12.43
2018-02-08T01:13:05.680Z,13.03
2018-02-08T01:15:33.828Z,10.67
2018-02-08T01:18:00.790Z,12.97
2018-02-08T01:20:27.481Z,12.73
2018-02-08T01:22:54.111Z,11.67
2018-02-08T01:25:21.142Z,11.50
2018-02-08T01:27:48.106Z,11.70
2018-02-08T01:30:15.154Z,11.23
2018-02-08T01:32:42.113Z,11.70
2018-02-08T01:35:08.865Z,13.57
2018-02-08T01:37:35.672Z,14.23
2018-02-08T01:40:02.552Z,12.23
2018-02-08T01:42:29.401Z,14.47
2018-02-08T01:44:56.081Z,13.90
2018-02-08T01:47:22.732Z,15.83
2018-02-08T01:49:49.635Z,14.03
2018-02-08T01:52:16.591Z,11.87
2018-02-08T01:54:44.122Z,12.23
2018-02-08T01:57:10.833Z,9.20
2018-02-08T01:59:37.525Z,14.00
2018-02-08T02:02:04.933Z,20.77
2018-02-08T02:04:31.670Z,14.43
2018-02-08T02:06:58.349Z,13.73
2018-02-08T02:09:25.039Z,12.70
2018-02-08T02:11:51.785Z,13.00
2018-02-08T02:14:20.274Z,10.33
2018-02-08T02:16:46.904Z,11.40
2018-02-08T02:19:13.767Z,12.20
2018-02-08T02:21:40.894Z,12.20
2018-02-08T02:24:08.572Z,11.00
2018-02-08T02:26:35.743Z,10.57
2018-02-08T02:29:02.693Z,14.73
2018-02-08T02:31:29.541Z,13.63
2018-02-08T02:33:56.599Z,14.80
2018-02-08T02:36:23.545Z,14.93
2018-02-08T02:38:50.297Z,15.50
2018-02-08T02:41:17.357Z,20.43
2018-02-08T02:43:44.051Z,18.33
2018-02-08T02:46:10.805Z,16.63
2018-02-08T02:48:37.419Z,15.37
2018-02-08T02:51:04.187Z,16.03
2018-02-08T02:53:31.142Z,15.83
2018-02-08T02:55:57.759Z,12.87
2018-02-08T02:58:24.740Z,14.63
2018-02-08T03:00:52.104Z,14.93
2018-02-08T03:03:19.599Z,13.00
2018-02-08T03:05:46.853Z,13.27
2018-02-08T03:08:13.804Z,12.27
2018-02-08T03:10:40.758Z,12.50
2018-02-08T03:13:07.811Z,11.93
2018-02-08T03:15:34.763Z,15.97
2018-02-08T03:18:02.024Z,13.00
2018-02-08T03:20:29.508Z,16.17
2018-02-08T03:22:56.739Z,15.27
2018-02-08T03:25:23.741Z,20.13
2018-02-08T03:27:50.444Z,13.83
2018-02-08T03:30:17.258Z,14.97
2018-02-08T03:32:44.625Z,17.83
2018-02-08T03:35:12.735Z,15.13
2018-02-08T03:37:40.186Z,15.30
2018-02-08T03:40:06.831Z,17.23
2018-02-08T03:42:33.573Z,17.37
2018-02-08T03:45:00.806Z,17.87
2018-02-08T03:47:27.537Z,15.87
2018-02-08T03:49:54.522Z,18.37
2018-02-08T03:52:21.993Z,15.80
2018-02-08T03:54:48.741Z,16.43
2018-02-08T03:57:15.689Z,12.83
2018-02-08T03:59:42.843Z,14.70
2018-02-08T04:02:09.906Z,14.70
2018-02-08T04:04:36.853Z,17.37
2018-02-08T04:07:03.803Z,19.23
2018-02-08T04:09:30.442Z,16.83
2018-02-08T04:11:57.157Z,23.17
2018-02-08T04:14:23.785Z,17.37
2018-02-08T04:16:50.686Z,15.47
2018-02-08T04:19:17.507Z,18.87
2018-02-08T04:21:44.275Z,19.53
2018-02-08T04:24:11.229Z,20.57
2018-02-08T04:26:38.689Z,23.93
2018-02-08T04:29:05.950Z,21.67
2018-02-08T04:31:32.570Z,21.50
2018-02-08T04:33:59.232Z,19.50
2018-02-08T04:36:25.997Z,18.63
2018-02-08T04:39:08.182Z,17.43
2018-02-08T04:41:47.340Z,20.47
2018-02-08T04:44:26.948Z,19.90
2018-02-08T04:46:59.629Z,21.97
2018-02-08T04:49:26.387Z,18.23
2018-02-08T04:51:53.431Z,17.53
2018-02-08T04:54:20.486Z,19.57
2018-02-08T04:56:47.945Z,19.57
2018-02-08T04:59:14.895Z,13.80
2018-02-08T05:01:42.592Z,14.10
2018-02-08T05:04:09.210Z,15.20
2018-02-08T05:06:36.031Z,17.70
2018-02-08T05:09:04.136Z,24.37
2018-02-08T05:11:31.086Z,23.77
2018-02-08T05:13:57.936Z,20.43
2018-02-08T05:16:24.739Z,18.83
2018-02-08T05:18:51.629Z,17.73
2018-02-08T05:21:19.501Z,14.63
2018-02-08T05:23:46.452Z,26.53
2018-02-08T05:26:13.583Z,22.83
2018-02-08T05:28:41.057Z,19.33
2018-02-08T05:31:08.736Z,27.17
2018-02-08T05:33:35.894Z,18.33
2018-02-08T05:36:03.152Z,19.57
2018-02-08T05:38:30.411Z,19.70
2018-02-08T05:40:57.258Z,18.17
2018-02-08T05:43:24.801Z,16.23
2018-02-08T05:45:52.208Z,14.60
2018-02-08T05:48:18.870Z,20.23
2018-02-08T05:50:45.572Z,18.17
2018-02-08T05:53:12.834Z,21.13
2018-02-08T05:55:39.560Z,15.93
2018-02-08T05:58:06.966Z,16.10
2018-02-08T06:00:33.702Z,15.93
2018-02-08T06:03:00.532Z,13.67
2018-02-08T06:05:27.279Z,12.90
2018-02-08T06:07:54.023Z,14.47
2018-02-08T06:10:20.875Z,11.83
2018-02-08T06:12:47.720Z,12.47
2018-02-08T06:15:16.037Z,11.70
2018-02-08T06:17:44.692Z,11.83
2018-02-08T06:20:12.077Z,11.17
2018-02-08T06:22:39.107Z,11.33
2018-02-08T06:25:06.162Z,9.77
2018-02-08T06:27:33.317Z,11.67
2018-02-08T06:30:01.582Z,11.97
2018-02-08T06:32:29.911Z,12.97
2018-02-08T06:34:56.831Z,12.57
2018-02-08T06:37:23.987Z,13.97
2018-02-08T06:39:51.191Z,14.17
2018-02-08T06:42:18.294Z,17.80
2018-02-08T06:44:45.762Z,15.30
2018-02-08T06:47:12.811Z,14.50
2018-02-08T06:49:41.921Z,11.93
2018-02-08T06:52:08.560Z,12.47
2018-02-08T06:54:35.302Z,13.37
2018-02-08T06:57:02.456Z,11.77
2018-02-08T06:59:29.205Z,11.63
2018-02-08T07:01:55.822Z,9.80
2018-02-08T07:04:23.823Z,11.27
2018-02-08T07:06:50.579Z,10.80
2018-02-08T07:09:17.423Z,11.40
2018-02-08T07:11:44.163Z,13.47
2018-02-08T07:14:10.910Z,11.73
2018-02-08T07:16:38.782Z,12.43
2018-02-08T07:19:05.528Z,17.13
2018-02-08T07:21:32.581Z,16.57
2018-02-08T07:23:59.840Z,12.90
2018-02-08T07:26:27.100Z,12.70
2018-02-08T07:28:54.966Z,12.17
2018-02-08T07:31:21.917Z,12.63
2018-02-08T07:33:48.870Z,11.00
2018-02-08T07:36:17.050Z,11.33
2018-02-08T07:38:43.691Z,10.30
2018-02-08T07:41:10.968Z,9.87
2018-02-08T07:43:37.900Z,9.70
2018-02-08T07:46:05.032Z,9.93
2018-02-08T07:48:32.722Z,9.83
2018-02-08T07:50:59.469Z,9.20
2018-02-08T07:53:27.140Z,10.60
2018-02-08T07:55:54.091Z,10.20
2018-02-08T07:58:20.940Z,9.57
2018-02-08T08:00:47.787Z,10.63
2018-02-08T08:03:14.538Z,9.93
2018-02-08T08:05:41.688Z,10.70
2018-02-08T08:08:08.842Z,8.83
2018-02-08T08:10:35.690Z,10.13
2018-02-08T08:13:02.850Z,10.50
2018-02-08T08:15:29.697Z,10.00
2018-02-08T08:17:56.338Z,10.67
2018-02-08T08:20:23.577Z,10.80
2018-02-08T08:22:51.371Z,11.30
2018-02-08T08:25:18.216Z,11.10
2018-02-08T08:27:45.781Z,11.20
2018-02-08T08:30:12.627Z,12.70
2018-02-08T08:32:39.387Z,11.63
2018-02-08T08:35:06.122Z,11.57
2018-02-08T08:37:33.755Z,12.27
2018-02-08T08:40:00.840Z,11.37
2018-02-08T08:42:28.511Z,10.57
2018-02-08T08:44:55.609Z,11.47
2018-02-08T08:47:22.270Z,11.03
2018-02-08T08:49:48.956Z,12.17
2018-02-08T08:52:15.700Z,11.57
2018-02-08T08:54:43.263Z,11.00
2018-02-08T08:57:10.727Z,11.63
2018-02-08T08:59:37.779Z,10.30
2018-02-08T09:02:04.834Z,10.40
2018-02-08T09:04:31.680Z,10.80
2018-02-08T09:06:58.531Z,10.10
2018-02-08T09:09:26.284Z,9.50
2018-02-08T09:11:53.787Z,11.30
2018-02-08T09:14:20.712Z,10.77
2018-02-08T09:16:48.070Z,10.87
2018-02-08T09:19:15.333Z,10.90
2018-02-08T09:21:42.382Z,10.17
2018-02-08T09:24:09.111Z,11.47
2018-02-08T09:26:36.592Z,10.37
2018-02-08T09:29:04.256Z,10.37
2018-02-08T09:31:31.210Z,10.43
2018-02-08T09:33:58.264Z,10.73
2018-02-08T09:36:25.654Z,10.50
2018-02-08T09:38:52.486Z,9.93
2018-02-08T09:41:19.501Z,9.97
2018-02-08T09:43:47.405Z,9.10
2018-02-08T09:46:14.142Z,10.07
2018-02-08T09:48:40.994Z,10.30
2018-02-08T09:51:08.150Z,9.77
2018-02-08T09:53:35.306Z,10.43
2018-02-08T09:56:02.575Z,9.97
2018-02-08T09:58:29.617Z,10.23
2018-02-08T10:00:56.979Z,10.80
2018-02-08T10:03:24.029Z,9.17
2018-02-08T10:05:50.875Z,9.60
2018-02-08T10:08:18.850Z,10.03
2018-02-08T10:10:47.117Z,10.50
2018-02-08T10:13:13.752Z,12.27
2018-02-08T10:15:41.241Z,11.03
2018-02-08T10:18:08.393Z,9.77
2018-02-08T10:20:35.446Z,10.93
2018-02-08T10:23:02.295Z,11.73
2018-02-08T10:25:29.245Z,13.17
2018-02-08T10:27:56.609Z,10.87
2018-02-08T10:30:23.382Z,11.10
2018-02-08T10:32:50.201Z,11.17
2018-02-08T10:35:17.159Z,12.97
2018-02-08T10:37:44.267Z,11.70
2018-02-08T10:40:11.467Z,11.43
2018-02-08T10:42:39.130Z,11.27
2018-02-08T10:45:05.978Z,10.67
2018-02-08T10:47:32.911Z,10.73
2018-02-08T10:50:00.504Z,10.33
2018-02-08T10:52:27.251Z,10.33
2018-02-08T10:54:54.603Z,11.57
2018-02-08T10:57:21.349Z,10.43
2018-02-08T10:59:48.710Z,10.57
2018-02-08T11:02:15.864Z,10.60
2018-02-08T11:04:43.839Z,10.43
2018-02-08T11:07:11.401Z,9.93
2018-02-08T11:09:38.454Z,10.20
2018-02-08T11:12:06.126Z,9.37
2018-02-08T11:14:33.180Z,9.03
2018-02-08T11:16:59.924Z,9.03
2018-02-08T11:19:26.772Z,8.60
2018-02-08T11:21:53.517Z,11.70
2018-02-08T11:24:20.674Z,8.90
2018-02-08T11:26:47.727Z,8.47
2018-02-08T11:29:14.862Z,8.33
2018-02-08T11:31:42.446Z,9.00
2018-02-08T11:34:09.301Z,8.53
2018-02-08T11:36:36.043Z,8.67
2018-02-08T11:39:02.894Z,8.43
2018-02-08T11:41:29.740Z,8.07
2018-02-08T11:43:56.483Z,9.10
2018-02-08T11:46:23.537Z,9.87
2018-02-08T11:48:50.278Z,8.80
2018-02-08T11:51:17.958Z,8.93
2018-02-08T11:53:44.904Z,8.37
2018-02-08T11:56:11.932Z,7.87
2018-02-08T11:58:39.621Z,7.50
2018-02-08T12:01:06.986Z,10.60
2018-02-08T12:03:33.832Z,9.63
2018-02-08T12:06:01.395Z,9.20
2018-02-08T12:08:28.141Z,8.17
2018-02-08T12:10:54.785Z,8.53
2018-02-08T12:13:21.583Z,8.23
2018-02-08T12:15:49.207Z,8.30
2018-02-08T12:18:15.945Z,7.07
2018-02-08T12:20:42.797Z,7.07
2018-02-08T12:23:09.520Z,6.20
2018-02-08T12:25:37.499Z,7.10
2018-02-08T12:28:04.572Z,6.80
2018-02-08T12:30:31.314Z,5.70
2018-02-08T12:33:00.213Z,5.77
2018-02-08T12:35:27.876Z,6.07
2018-02-08T12:37:54.731Z,6.60
2018-02-08T12:40:21.501Z,6.87
2018-02-08T12:42:48.198Z,6.63
2018-02-08T12:45:15.623Z,6.97
2018-02-08T12:47:42.302Z,6.30
2018-02-08T12:50:10.294Z,6.53
2018-02-08T12:52:37.250Z,6.27
2018-02-08T12:55:04.420Z,5.97
2018-02-08T12:57:31.388Z,5.73
2018-02-08T12:59:58.525Z,5.83
2018-02-08T13:02:25.772Z,6.20
2018-02-08T13:04:53.018Z,5.80
2018-02-08T13:07:20.697Z,6.03
2018-02-08T13:09:47.849Z,6.40
2018-02-08T13:12:14.595Z,5.70
2018-02-08T13:14:41.447Z,6.53
2018-02-08T13:17:09.523Z,6.07
2018-02-08T13:19:36.370Z,5.97
2018-02-08T13:22:03.128Z,5.60
2018-02-08T13:24:30.271Z,5.97
2018-02-08T13:26:57.324Z,6.07
2018-02-08T13:29:24.998Z,6.07
2018-02-08T13:32:02.129Z,5.90
2018-02-08T13:34:29.335Z,6.60
2018-02-08T13:36:56.116Z,6.13
2018-02-08T13:39:23.235Z,6.63
2018-02-08T13:41:49.982Z,5.77
2018-02-08T13:44:17.033Z,6.00
2018-02-08T13:46:43.747Z,7.63
2018-02-08T13:49:32.121Z,7.40
2018-02-08T13:52:04.059Z,6.90
2018-02-08T13:54:48.839Z,6.70
2018-02-08T13:57:21.728Z,6.47
2018-02-08T13:59:53.486Z,7.20
2018-02-08T14:02:21.362Z,6.63
2018-02-08T14:04:48.316Z,7.07
2018-02-08T14:07:15.979Z,10.90
2018-02-08T14:09:42.804Z,7.20
2018-02-08T14:12:09.879Z,6.70
2018-02-08T14:14:36.934Z,7.07
2018-02-08T14:17:05.421Z,6.43
2018-02-08T14:19:32.675Z,6.47
2018-02-08T14:21:59.573Z,6.77
2018-02-08T14:24:28.729Z,7.93
2018-02-08T14:26:55.579Z,6.97
2018-02-08T14:29:22.428Z,7.03
2018-02-08T14:31:49.170Z,6.80
2018-02-08T14:34:16.022Z,6.93
2018-02-08T14:36:42.866Z,6.13
2018-02-08T14:39:09.724Z,6.73
2018-02-08T14:41:36.772Z,7.03
2018-02-08T14:44:04.030Z,7.17
2018-02-08T14:46:31.186Z,7.10
2018-02-08T14:48:58.016Z,6.27
2018-02-08T14:51:25.188Z,5.93
2018-02-08T14:53:52.104Z,6.87
2018-02-08T14:56:20.459Z,6.27
2018-02-08T14:58:47.686Z,6.23
2018-02-08T15:01:14.633Z,5.87
2018-02-08T15:03:42.079Z,5.97
2018-02-08T15:06:09.759Z,5.70
2018-02-08T15:08:36.639Z,5.77
2018-02-08T15:11:04.070Z,6.03
2018-02-08T15:13:30.920Z,4.57
2018-02-08T15:15:58.177Z,7.83
2018-02-08T15:18:25.491Z,5.30
2018-02-08T15:20:52.325Z,5.37
2018-02-08T15:23:19.719Z,4.77
2018-02-08T15:25:47.819Z,4.93
2018-02-08T15:28:15.078Z,4.57
2018-02-08T15:30:42.237Z,5.07
2018-02-08T15:33:09.807Z,4.80
2018-02-08T15:35:37.363Z,4.00
2018-02-08T15:38:04.317Z,4.23
2018-02-08T15:40:31.892Z,4.43
2018-02-08T15:42:58.730Z,4.30
2018-02-08T15:45:25.882Z,3.90
2018-02-08T15:47:53.249Z,3.83
2018-02-08T15:50:19.863Z,4.33
2018-02-08T15:52:46.739Z,4.13
2018-02-08T15:55:13.794Z,3.77
2018-02-08T15:57:41.455Z,4.10
2018-02-08T16:00:08.819Z,4.20
2018-02-08T16:02:35.669Z,3.53
2018-02-08T16:05:03.537Z,3.53
2018-02-08T16:07:30.389Z,3.93
2018-02-08T16:09:57.440Z,3.70
2018-02-08T16:12:24.496Z,3.13
2018-02-08T16:14:51.547Z,3.07
2018-02-08T16:17:18.296Z,3.20
2018-02-08T16:19:46.575Z,3.33
2018-02-08T16:22:14.034Z,3.50
2018-02-08T16:24:41.837Z,3.03
2018-02-08T16:27:08.759Z,2.97
2018-02-08T16:29:36.632Z,3.60
2018-02-08T16:32:03.681Z,3.47
2018-02-08T16:34:30.736Z,3.23
2018-02-08T16:36:58.591Z,3.20
2018-02-08T16:39:25.969Z,3.00
2018-02-08T16:41:52.716Z,3.37
2018-02-08T16:44:19.667Z,2.60
2018-02-08T16:46:46.409Z,2.50
2018-02-08T16:49:13.156Z,3.97
2018-02-08T16:51:40.312Z,2.67
2018-02-08T16:54:07.773Z,2.70
2018-02-08T16:56:35.045Z,2.87
2018-02-08T16:59:01.755Z,2.93
2018-02-08T17:01:29.343Z,2.97
2018-02-08T17:03:56.191Z,2.67
2018-02-08T17:06:22.942Z,2.23
2018-02-08T17:08:49.884Z,2.23
2018-02-08T17:11:17.328Z,2.33
2018-02-08T17:13:45.121Z,2.10
2018-02-08T17:16:12.587Z,2.23
2018-02-08T17:18:39.435Z,2.13
2018-02-08T17:21:06.584Z,3.17
2018-02-08T17:23:33.848Z,2.07
2018-02-08T17:26:00.464Z,2.70
2018-02-08T17:28:28.466Z,2.47
2018-02-08T17:30:55.563Z,3.20
2018-02-08T17:33:22.774Z,2.50
2018-02-08T17:35:49.531Z,2.17
2018-02-08T17:38:16.269Z,2.50
2018-02-08T17:40:42.986Z,2.83
2018-02-08T17:43:09.942Z,3.30
2018-02-08T17:45:37.718Z,2.67
2018-02-08T17:48:05.497Z,2.30
2018-02-08T17:50:32.918Z,1.70
2018-02-08T17:52:59.850Z,2.87
2018-02-08T17:55:26.496Z,2.67
2018-02-08T17:57:53.238Z,2.73
2018-02-08T18:00:19.999Z,3.73
2018-02-08T18:02:46.647Z,2.80
2018-02-08T18:05:14.067Z,2.07
2018-02-08T18:07:40.905Z,2.57
2018-02-08T18:10:07.760Z,2.93
2018-02-08T18:12:35.939Z,2.03
2018-02-08T18:15:03.195Z,2.70
2018-02-08T18:17:29.812Z,11.23
2018-02-08T18:19:57.301Z,4.67
2018-02-08T18:22:25.074Z,2.97
2018-02-08T18:24:52.031Z,2.97
2018-02-08T18:27:19.042Z,14.13
2018-02-08T18:29:45.814Z,3.90
2018-02-08T18:32:12.543Z,3.80
2018-02-08T18:34:40.439Z,4.00
2018-02-08T18:37:07.693Z,6.60
2018-02-08T18:39:34.622Z,2.53
2018-02-08T18:42:01.530Z,5.23
2018-02-08T18:44:29.002Z,4.33
2018-02-08T18:46:55.920Z,11.00
2018-02-08T18:49:24.057Z,24.63
2018-02-08T18:51:51.482Z,7.83
2018-02-08T18:54:19.323Z,3.77
2018-02-08T18:56:46.126Z,3.63
2018-02-08T18:59:14.411Z,4.73
2018-02-08T19:01:41.212Z,2.90
2018-02-08T19:04:08.269Z,3.10
2018-02-08T19:06:35.154Z,9.53
2018-02-08T19:09:02.353Z,3.00
2018-02-08T19:11:29.995Z,3.13
2018-02-08T19:13:58.097Z,5.60
2018-02-08T19:16:25.223Z,2.80
2018-02-08T19:18:52.101Z,4.77
2018-02-08T19:21:19.257Z,3.83
2018-02-08T19:23:45.989Z,2.97
2018-02-08T19:26:13.834Z,6.27
2018-02-08T19:28:43.574Z,4.10
2018-02-08T19:31:10.642Z,4.13
2018-02-08T19:33:37.407Z,5.53
2018-02-08T19:36:05.261Z,3.73
2018-02-08T19:38:32.276Z,6.17
2018-02-08T19:40:59.273Z,6.87
2018-02-08T19:43:26.731Z,5.37
2018-02-08T19:45:53.476Z,4.43
2018-02-08T19:48:20.596Z,4.73
2018-02-08T19:50:47.277Z,4.77
2018-02-08T19:53:14.019Z,3.70
2018-02-08T19:55:40.972Z,2.93
2018-02-08T19:58:08.944Z,3.40
2018-02-08T20:00:35.636Z,3.40
2018-02-08T20:03:02.466Z,4.70
2018-02-08T20:05:29.489Z,5.00
2018-02-08T20:07:56.131Z,4.07
2018-02-08T20:10:23.239Z,3.67
2018-02-08T20:12:50.383Z,4.53
2018-02-08T20:15:19.464Z,4.63
2018-02-08T20:17:46.191Z,5.43
2018-02-08T20:20:13.304Z,4.17
2018-02-08T20:22:40.898Z,5.43
2018-02-08T20:25:14.613Z,3.60
2018-02-08T20:27:41.851Z,3.10
2018-02-08T20:30:09.499Z,2.90
2018-02-08T20:32:36.905Z,2.77
2018-02-08T20:35:03.853Z,3.53
2018-02-08T20:37:31.198Z,3.30
2018-02-08T20:39:58.147Z,4.13
2018-02-08T20:42:45.681Z,3.23
2018-02-08T20:45:12.659Z,3.30
2018-02-08T20:47:40.694Z,3.47
2018-02-08T20:50:08.114Z,4.47
2018-02-08T20:52:35.267Z,2.87
2018-02-08T20:55:02.089Z,2.97
2018-02-08T20:57:28.774Z,2.90
2018-02-08T20:59:56.342Z,2.57
2018-02-08T21:02:23.238Z,4.63
2018-02-08T21:04:50.556Z,3.50
2018-02-08T21:07:18.387Z,3.10
2018-02-08T21:09:46.552Z,5.03
2018-02-08T21:12:13.864Z,4.43
2018-02-08T21:14:40.722Z,2.73
2018-02-08T21:17:08.085Z,2.97
2018-02-08T21:19:35.138Z,6.13
2018-02-08T21:22:02.566Z,3.17
2018-02-08T21:24:32.490Z,2.97
2018-02-08T21:26:59.889Z,2.60
2018-02-08T21:29:26.644Z,4.97
2018-02-08T21:31:54.318Z,2.97
2018-02-08T21:34:21.044Z,6.67
2018-02-08T21:36:49.246Z,3.50
2018-02-08T21:39:16.335Z,3.30
2018-02-08T21:41:42.954Z,3.27
2018-02-08T21:44:10.875Z,2.93
2018-02-08T21:46:37.661Z,3.07
2018-02-08T21:49:04.922Z,3.30
2018-02-08T21:51:32.049Z,4.37
2018-02-08T21:53:59.518Z,4.83
2018-02-08T21:56:27.562Z,3.67
2018-02-08T21:58:54.554Z,3.43
2018-02-08T22:01:21.945Z,5.30
2018-02-08T22:03:48.838Z,2.70
2018-02-08T22:06:16.751Z,3.60
2018-02-08T22:08:43.802Z,3.53
2018-02-08T22:11:10.817Z,4.50
2018-02-08T22:13:37.600Z,3.23
2018-02-08T22:16:04.685Z,2.60
2018-02-08T22:18:31.307Z,2.67
2018-02-08T22:20:58.292Z,4.03
2018-02-08T22:23:25.407Z,2.77
2018-02-08T22:25:52.152Z,5.00
2018-02-08T22:28:19.000Z,4.67
2018-02-08T22:30:47.395Z,4.60
2018-02-08T22:33:14.034Z,3.53
2018-02-08T22:35:40.677Z,5.33
2018-02-08T22:38:07.447Z,5.50
2018-02-08T22:40:34.051Z,4.27
2018-02-08T22:43:01.937Z,3.57
2018-02-08T22:45:28.886Z,5.90
2018-02-08T22:47:55.752Z,3.90
2018-02-08T22:50:22.626Z,6.40
2018-02-08T22:52:49.609Z,3.73
2018-02-08T22:55:16.589Z,5.17
2018-02-08T22:57:43.638Z,3.93
2018-02-08T23:00:11.243Z,5.90
2018-02-08T23:02:39.592Z,3.50
2018-02-08T23:05:06.644Z,4.60
2018-02-08T23:07:33.386Z,3.50
2018-02-08T23:10:00.442Z,4.27
2018-02-08T23:12:27.087Z,5.30
2018-02-08T23:14:54.345Z,3.73
2018-02-08T23:17:21.503Z,6.73
2018-02-08T23:19:48.553Z,3.43
2018-02-08T23:22:15.270Z,3.83
2018-02-08T23:24:42.861Z,4.93
2018-02-08T23:27:09.594Z,4.03
2018-02-08T23:29:36.459Z,3.00
2018-02-08T23:32:03.202Z,3.80
2018-02-08T23:34:30.056Z,4.00
2018-02-08T23:36:56.796Z,4.17
2018-02-08T23:39:23.850Z,2.67
2018-02-08T23:41:50.701Z,2.67
2018-02-08T23:44:17.353Z,3.47
2018-02-08T23:46:44.301Z,3.00
2018-02-08T23:49:12.150Z,4.43
2018-02-08T23:51:39.499Z,4.30
2018-02-08T23:54:07.298Z,5.07
2018-02-08T23:56:34.458Z,3.67
2018-02-08T23:59:01.197Z,3.43
